Time;durP1;ratioP1;P1;durP2;ratioP2;P2;SDS_P1;SDS_P2;PMS_P1;PMS_P2;Temp;Humidity;BMP_temperature;BMP_pressure;BME280_temperature;BME280_humidity;BME280_pressure;Samples;Min_cycle;Max_cycle;Signal;HPM_P1;HPM_P2
2022/05/16 00:01:19;;;;;;;11.85;4.00;;;15.90;99.90;;;;;;5094176;28;20395;-69
2022/05/16 00:03:45;;;;;;;10.88;3.90;;;15.90;99.90;;;;;;5094160;28;20024;-69
2022/05/16 00:06:10;;;;;;;15.60;4.80;;;15.90;99.90;;;;;;5093178;28;20034;-69
2022/05/16 00:08:36;;;;;;;11.10;4.55;;;15.80;99.90;;;;;;5093996;28;20111;-69
2022/05/16 00:11:02;;;;;;;9.82;4.25;;;15.80;99.90;;;;;;5094245;28;20020;-69
2022/05/16 00:13:28;;;;;;;12.27;4.53;;;15.70;99.90;;;;;;5093922;28;20124;-69
2022/05/16 00:15:55;;;;;;;10.90;4.22;;;15.70;99.90;;;;;;5093944;28;20060;-69
2022/05/16 00:18:20;;;;;;;11.27;4.50;;;15.70;99.90;;;;;;5093778;28;20562;-69
2022/05/16 00:20:46;;;;;;;11.70;4.78;;;15.70;99.90;;;;;;5093882;28;20047;-69
2022/05/16 00:23:11;;;;;;;11.50;4.57;;;15.70;99.90;;;;;;5075611;28;20020;-69
2022/05/16 00:25:37;;;;;;;13.18;4.60;;;15.60;99.90;;;;;;5093845;28;20027;-69
2022/05/16 00:28:03;;;;;;;12.93;4.63;;;15.60;99.90;;;;;;5092380;28;20032;-69
2022/05/16 00:30:30;;;;;;;12.68;5.15;;;15.60;99.90;;;;;;5093658;28;20024;-69
2022/05/16 00:32:56;;;;;;;12.65;4.30;;;15.60;99.90;;;;;;5092705;28;20020;-68
2022/05/16 00:35:22;;;;;;;12.10;4.95;;;15.60;99.90;;;;;;5092399;28;20042;-69
2022/05/16 00:37:48;;;;;;;11.88;4.68;;;15.50;99.90;;;;;;5093497;28;20032;-69
2022/05/16 00:40:15;;;;;;;10.80;4.68;;;15.50;99.90;;;;;;5093742;28;20024;-69
2022/05/16 00:42:41;;;;;;;10.00;5.00;;;15.50;99.90;;;;;;5093607;28;20520;-69
2022/05/16 00:45:09;;;;;;;14.00;4.88;;;15.40;99.90;;;;;;5092134;28;20016;-69
2022/05/16 00:47:35;;;;;;;9.73;4.50;;;15.40;99.90;;;;;;5093408;28;20078;-69
2022/05/16 00:50:02;;;;;;;17.70;5.00;;;15.40;99.90;;;;;;5092184;28;20024;-70
2022/05/16 00:52:33;;;;;;;19.50;5.05;;;15.40;99.90;;;;;;5093196;28;20036;-69
2022/05/16 00:55:05;;;;;;;15.85;4.60;;;15.40;99.90;;;;;;5092368;28;20032;-69
2022/05/16 00:57:43;;;;;;;14.13;4.68;;;15.30;99.90;;;;;;5091803;28;20040;-69
2022/05/16 01:00:16;;;;;;;16.33;4.50;;;15.40;99.90;;;;;;5093508;28;20059;-69
2022/05/16 01:05:38;;;;;;;15.80;4.90;;;15.50;99.90;;;;;;5093086;28;20148;-69
2022/05/16 01:08:10;;;;;;;13.20;5.40;;;15.40;99.90;;;;;;5093518;28;20032;-69
2022/05/16 01:10:36;;;;;;;13.10;4.40;;;15.40;99.90;;;;;;5093142;28;20028;-68
2022/05/16 01:13:03;;;;;;;16.95;4.97;;;15.30;99.90;;;;;;5093120;28;20024;-69
2022/05/16 01:18:11;;;;;;;16.80;5.53;;;15.30;99.90;;;;;;5070630;28;20758;-68
2022/05/16 01:21:17;;;;;;;13.45;4.38;;;15.30;99.90;;;;;;5070530;28;20426;-68
2022/05/16 01:23:47;;;;;;;12.55;4.63;;;15.30;99.90;;;;;;5070286;28;20511;-68
2022/05/16 01:26:17;;;;;;;14.70;4.50;;;15.20;99.90;;;;;;5070659;28;20032;-69
2022/05/16 01:28:44;;;;;;;13.40;4.78;;;15.20;99.90;;;;;;5070388;28;20021;-68
2022/05/16 01:31:09;;;;;;;17.63;5.15;;;15.20;99.90;;;;;;5070322;28;20098;-67
2022/05/16 01:33:35;;;;;;;10.77;4.68;;;15.10;99.90;;;;;;5070197;28;20471;-68
2022/05/16 01:36:01;;;;;;;12.00;5.05;;;15.10;99.90;;;;;;5068830;28;20021;-68
2022/05/16 01:38:28;;;;;;;13.65;4.80;;;15.10;99.90;;;;;;5052349;28;20027;-67
2022/05/16 01:40:57;;;;;;;13.18;4.75;;;15.10;99.90;;;;;;5070163;28;20020;-68
2022/05/16 01:43:27;;;;;;;12.23;4.78;;;15.00;99.90;;;;;;5070078;28;20467;-68
2022/05/16 01:45:53;;;;;;;18.55;5.00;;;15.00;99.90;;;;;;5070079;28;20504;-69
2022/05/16 01:48:20;;;;;;;10.27;4.38;;;15.00;99.90;;;;;;5069962;28;20108;-69
2022/05/16 01:50:47;;;;;;;11.20;5.20;;;15.00;99.90;;;;;;5069920;28;20017;-69
2022/05/16 01:53:14;;;;;;;11.45;4.53;;;14.90;99.90;;;;;;5069907;28;20036;-68
2022/05/16 01:55:39;;;;;;;15.27;4.55;;;14.80;99.90;;;;;;5070130;28;20025;-68
2022/05/16 01:58:06;;;;;;;16.90;5.28;;;14.80;99.90;;;;;;5068506;28;20376;-68
2022/05/16 02:00:32;;;;;;;11.95;4.57;;;14.80;99.90;;;;;;5068380;28;20021;-69
2022/05/16 02:03:01;;;;;;;11.55;4.68;;;14.70;99.90;;;;;;5069716;28;20446;-68
2022/05/16 02:05:27;;;;;;;12.25;4.50;;;14.80;99.90;;;;;;5069688;28;20551;-68
2022/05/16 02:07:52;;;;;;;13.80;4.75;;;14.70;99.90;;;;;;5069599;28;20060;-69
2022/05/16 02:10:22;;;;;;;14.07;5.00;;;14.80;99.90;;;;;;5069857;28;20025;-68
2022/05/16 02:12:49;;;;;;;9.43;4.05;;;14.70;99.90;;;;;;5068268;28;20047;-68
2022/05/16 02:15:19;;;;;;;14.88;5.10;;;14.70;99.90;;;;;;5069350;28;20062;-68
2022/05/16 02:17:45;;;;;;;17.35;5.05;;;14.70;99.90;;;;;;5069109;28;20040;-69
2022/05/16 02:20:12;;;;;;;13.65;4.03;;;14.70;99.90;;;;;;5069563;28;20040;-69
2022/05/16 02:25:24;;;;;;;15.02;4.82;;;14.70;99.90;;;;;;5068987;28;20028;-68
2022/05/16 02:27:51;;;;;;;12.68;4.38;;;14.70;99.90;;;;;;5065090;28;20499;-68
2022/05/16 02:30:17;;;;;;;16.75;5.20;;;14.70;99.90;;;;;;5038021;28;20021;-68
2022/05/16 02:32:43;;;;;;;9.85;4.53;;;14.70;99.90;;;;;;5055861;28;20025;-68
2022/05/16 02:35:08;;;;;;;14.10;4.65;;;14.80;99.90;;;;;;5056078;28;20481;-68
2022/05/16 02:37:34;;;;;;;12.57;4.47;;;14.80;99.90;;;;;;5055657;28;20032;-69
2022/05/16 02:40:00;;;;;;;13.32;3.78;;;14.80;99.90;;;;;;5055732;28;20403;-69
2022/05/16 02:42:25;;;;;;;13.05;4.80;;;14.70;99.90;;;;;;5055948;28;20021;-70
2022/05/16 02:44:52;;;;;;;16.17;4.70;;;14.70;99.90;;;;;;5054311;28;20021;-69
2022/05/16 02:47:19;;;;;;;13.02;4.25;;;14.80;99.90;;;;;;5037897;28;20106;-69
2022/05/16 02:49:45;;;;;;;9.50;4.35;;;14.70;99.90;;;;;;5055619;28;20391;-68
2022/05/16 02:52:11;;;;;;;17.50;5.75;;;14.80;99.90;;;;;;5055713;28;20021;-68
2022/05/16 02:54:37;;;;;;;13.90;4.78;;;14.80;99.90;;;;;;5055452;28;20407;-69
2022/05/16 02:57:03;;;;;;;15.65;4.35;;;14.70;99.90;;;;;;5055313;28;20086;-68
2022/05/16 02:59:32;;;;;;;14.00;4.72;;;14.70;99.90;;;;;;5055356;28;20050;-68
2022/05/16 03:01:59;;;;;;;13.57;4.68;;;14.70;99.90;;;;;;5055584;28;20028;-69
2022/05/16 03:04:25;;;;;;;17.90;5.63;;;14.70;99.90;;;;;;5055475;28;20048;-69
2022/05/16 03:06:51;;;;;;;14.32;4.45;;;14.60;99.90;;;;;;5055461;28;20483;-68
2022/05/16 03:09:17;;;;;;;21.92;5.40;;;14.60;99.90;;;;;;5055225;28;20488;-68
2022/05/16 03:11:44;;;;;;;10.65;4.28;;;14.50;99.90;;;;;;5055168;28;20086;-69
2022/05/16 03:14:11;;;;;;;15.70;4.90;;;14.50;99.90;;;;;;5053898;28;20158;-68
2022/05/16 03:16:37;;;;;;;12.48;5.15;;;14.40;99.90;;;;;;5054675;28;20047;-68
2022/05/16 03:19:03;;;;;;;14.68;4.50;;;14.40;99.90;;;;;;5054965;28;20049;-68
2022/05/16 03:21:29;;;;;;;13.75;4.57;;;14.30;99.90;;;;;;5054976;28;20021;-69
2022/05/16 03:23:56;;;;;;;9.52;4.68;;;14.30;99.90;;;;;;5055151;28;20060;-69
2022/05/16 03:26:21;;;;;;;10.75;4.53;;;14.30;99.90;;;;;;5054811;28;20029;-69
2022/05/16 03:28:47;;;;;;;14.43;5.13;;;14.30;99.90;;;;;;5053520;28;20509;-68
2022/05/16 03:31:12;;;;;;;11.48;4.13;;;14.30;99.90;;;;;;5055170;28;20028;-68
2022/05/16 03:33:38;;;;;;;9.85;4.20;;;14.20;99.90;;;;;;5054719;28;20036;-69
2022/05/16 03:36:03;;;;;;;15.75;5.20;;;14.20;99.90;;;;;;5054566;28;20068;-68
2022/05/16 03:41:15;;;;;;;15.93;5.05;;;14.30;99.90;;;;;;5052480;28;20514;-68
2022/05/16 03:43:41;;;;;;;11.75;4.95;;;14.30;99.90;;;;;;5036740;28;20029;-68
2022/05/16 03:46:08;;;;;;;11.77;4.82;;;14.40;99.90;;;;;;5053325;28;20025;-68
2022/05/16 03:48:34;;;;;;;15.50;5.10;;;14.30;99.90;;;;;;5054405;28;20527;-68
2022/05/16 03:51:02;;;;;;;12.20;4.93;;;14.30;99.90;;;;;;5054367;28;20116;-68
2022/05/16 03:53:28;;;;;;;14.55;5.80;;;14.40;99.90;;;;;;5054358;28;20033;-67
2022/05/16 03:55:54;;;;;;;12.23;5.13;;;14.40;99.90;;;;;;5054261;28;20017;-68
2022/05/16 03:58:20;;;;;;;12.55;4.68;;;14.30;99.90;;;;;;5053149;28;20055;-67
2022/05/16 04:00:45;;;;;;;14.63;4.95;;;14.40;99.90;;;;;;5054421;28;20029;-68
2022/05/16 04:03:11;;;;;;;12.43;4.78;;;14.40;99.90;;;;;;5054258;28;20395;-68
2022/05/16 04:05:38;;;;;;;14.00;4.43;;;14.40;99.90;;;;;;5054093;28;20112;-68
2022/05/16 04:08:04;;;;;;;9.32;4.47;;;14.50;99.90;;;;;;5054341;28;20439;-69
2022/05/16 04:10:30;;;;;;;11.80;4.85;;;14.50;99.90;;;;;;5052797;28;20479;-68
2022/05/16 04:12:55;;;;;;;15.57;4.88;;;14.60;99.90;;;;;;5052766;28;20031;-68
2022/05/16 04:15:22;;;;;;;13.35;5.00;;;14.60;99.90;;;;;;5053960;28;20433;-68
2022/05/16 04:17:48;;;;;;;12.90;4.70;;;14.60;99.90;;;;;;5053725;28;20128;-68
2022/05/16 04:20:15;;;;;;;14.45;4.70;;;14.60;99.90;;;;;;5053869;28;20021;-68
2022/05/16 04:22:41;;;;;;;13.80;5.28;;;14.60;99.90;;;;;;5053875;28;20531;-67
2022/05/16 04:25:10;;;;;;;18.05;5.53;;;14.70;99.90;;;;;;5053742;28;20017;-68
2022/05/16 04:27:35;;;;;;;14.75;4.63;;;14.80;99.90;;;;;;5053696;28;20025;-68
2022/05/16 04:30:01;;;;;;;12.32;5.07;;;14.90;99.90;;;;;;5053913;28;20055;-68
2022/05/16 04:32:26;;;;;;;12.75;4.65;;;15.10;99.90;;;;;;5053839;28;20025;-68
2022/05/16 04:34:52;;;;;;;9.68;4.57;;;15.90;99.90;;;;;;5053482;28;20111;-68
2022/05/16 04:37:18;;;;;;;15.85;4.68;;;;;;;;;;5053514;28;20120;-68
2022/05/16 04:39:44;;;;;;;8.32;4.40;;;17.10;99.90;;;;;;5053526;28;20127;-68
2022/05/16 04:42:41;;;;;;;13.55;4.07;;;18.00;99.90;;;;;;5053755;28;20064;-68
2022/05/16 04:44:55;;;;;;;14.07;4.53;;;18.80;99.90;;;;;;5053246;28;20434;-68
2022/05/16 04:47:21;;;;;;;10.18;4.45;;;19.20;99.90;;;;;;5053805;28;20036;-69
2022/05/16 04:49:46;;;;;;;11.65;4.60;;;19.50;99.90;;;;;;5055973;28;20017;-68
2022/05/16 04:52:12;;;;;;;9.50;4.20;;;;;;;;;;5064707;28;20029;-68
2022/05/16 04:54:40;;;;;;;10.15;4.20;;;;;;;;;;5056308;28;20475;-68
2022/05/16 04:57:06;;;;;;;9.70;4.43;;;;;;;;;;5055199;28;20446;-68
2022/05/16 04:59:31;;;;;;;15.15;4.90;;;19.20;99.90;;;;;;5061562;28;20059;-68
2022/05/16 05:01:57;;;;;;;9.57;4.40;;;19.10;99.90;;;;;;5060412;28;20021;-68
2022/05/16 05:04:22;;;;;;;13.10;4.63;;;18.80;99.90;;;;;;5068910;28;20027;-68
2022/05/16 05:06:48;;;;;;;12.10;4.50;;;18.50;99.90;;;;;;5055283;28;20599;-68
2022/05/16 05:09:14;;;;;;;15.23;4.60;;;18.10;99.90;;;;;;5067641;28;20119;-68
2022/05/16 05:14:32;;;;;;;11.13;4.72;;;17.40;99.90;;;;;;5056281;28;20051;-68
2022/05/16 05:16:59;;;;;;;19.85;4.90;;;17.20;99.90;;;;;;5041301;28;20056;-68
2022/05/16 05:19:25;;;;;;;13.43;4.57;;;17.10;99.90;;;;;;5064569;28;20033;-69
2022/05/16 05:21:50;;;;;;;11.75;4.30;;;17.10;99.90;;;;;;5054226;28;20390;-68
2022/05/16 05:24:16;;;;;;;10.15;4.43;;;17.00;99.90;;;;;;5057130;28;20044;-68
2022/05/16 05:26:43;;;;;;;17.33;4.50;;;17.00;99.90;;;;;;5050368;28;20063;-68
2022/05/16 05:29:09;;;;;;;13.52;4.57;;;17.40;99.90;;;;;;5055990;28;20120;-69
2022/05/16 05:31:35;;;;;;;13.45;5.05;;;18.00;99.90;;;;;;5068085;28;20031;-68
2022/05/16 05:34:01;;;;;;;10.93;4.30;;;19.60;99.90;;;;;;5060984;28;20115;-69
2022/05/16 05:36:27;;;;;;;11.65;4.80;;;20.80;99.90;;;;;;5060751;28;20100;-69
2022/05/16 05:38:53;;;;;;;9.77;4.07;;;22.40;98.30;;;;;;5067636;28;20538;-69
2022/05/16 05:41:21;;;;;;;10.88;3.60;;;23.10;94.50;;;;;;5055774;28;20040;-69
2022/05/16 05:43:47;;;;;;;7.65;3.88;;;22.90;94.00;;;;;;5066220;28;20079;-69
2022/05/16 05:46:12;;;;;;;9.30;3.80;;;22.90;92.70;;;;;;5062431;28;20387;-69
2022/05/16 05:48:38;;;;;;;11.48;4.07;;;23.70;91.40;;;;;;5058713;28;20059;-69
2022/05/16 05:51:03;;;;;;;9.18;4.07;;;24.70;88.10;;;;;;5067668;28;20029;-69
2022/05/16 05:53:29;;;;;;;9.50;3.45;;;24.50;87.00;;;;;;5055780;28;20027;-69
2022/05/16 05:56:14;;;;;;;9.57;3.80;;;24.20;87.80;;;;;;5064194;28;20048;-71
2022/05/16 05:58:40;;;;;;;12.80;4.63;;;24.90;86.10;;;;;;5065364;28;20089;-70
2022/05/16 06:01:06;;;;;;;12.80;4.05;;;24.60;82.80;;;;;;5055348;28;20033;-72
2022/05/16 06:03:32;;;;;;;10.38;3.53;;;25.50;81.00;;;;;;5054686;28;20024;-69
2022/05/16 06:05:58;;;;;;;13.30;3.85;;;25.00;80.60;;;;;;5059010;28;20099;-69
2022/05/16 06:08:23;;;;;;;11.80;4.75;;;25.70;77.50;;;;;;5067818;28;20025;-70
2022/05/16 06:10:49;;;;;;;7.15;3.63;;;25.90;76.50;;;;;;5056047;28;20384;-71
2022/05/16 06:13:17;;;;;;;8.93;3.70;;;25.60;76.30;;;;;;5066626;28;20028;-69
2022/05/16 06:15:43;;;;;;;12.50;3.78;;;24.80;77.10;;;;;;5062479;28;20025;-69
2022/05/16 06:18:08;;;;;;;11.32;3.70;;;24.90;80.50;;;;;;5054691;28;20029;-70
2022/05/16 06:20:34;;;;;;;8.65;3.95;;;25.20;77.30;;;;;;5068617;28;20031;-69
2022/05/16 06:22:59;;;;;;;12.40;4.07;;;24.80;79.30;;;;;;5050414;28;20037;-69
2022/05/16 06:25:32;;;;;;;9.15;4.15;;;24.80;81.10;;;;;;5052630;28;20013;-70
2022/05/16 06:28:05;;;;;;;11.38;4.25;;;25.70;77.40;;;;;;5050111;28;20067;-70
2022/05/16 06:30:32;;;;;;;10.25;4.10;;;26.80;73.40;;;;;;5058358;28;20090;-70
2022/05/16 06:32:58;;;;;;;9.90;4.10;;;25.90;74.30;;;;;;5060018;28;20020;-69
2022/05/16 06:35:24;;;;;;;8.35;4.20;;;25.20;76.70;;;;;;5069642;28;20571;-69
2022/05/16 06:37:50;;;;;;;14.00;4.13;;;24.10;80.50;;;;;;5064739;28;20084;-69
2022/05/16 06:40:17;;;;;;;8.30;3.80;;;23.80;84.20;;;;;;5054923;28;20049;-69
2022/05/16 06:42:45;;;;;;;13.27;4.10;;;24.70;81.90;;;;;;5047367;28;20021;-69
2022/05/16 06:45:12;;;;;;;6.97;3.38;;;25.50;78.10;;;;;;5062535;28;20040;-70
2022/05/16 06:47:37;;;;;;;9.05;4.03;;;26.40;76.80;;;;;;5056407;28;20036;-70
2022/05/16 06:50:04;;;;;;;9.25;3.90;;;26.30;76.40;;;;;;5049207;28;20457;-70
2022/05/16 06:52:30;;;;;;;10.20;3.63;;;27.40;73.60;;;;;;5073399;28;20487;-70
2022/05/16 06:54:55;;;;;;;11.20;3.80;;;26.30;76.80;;;;;;5052365;28;20116;-70
2022/05/16 06:57:21;;;;;;;12.57;4.10;;;25.20;77.70;;;;;;5047018;28;20388;-69
2022/05/16 06:59:47;;;;;;;12.05;3.75;;;24.60;82.10;;;;;;5047709;28;20364;-69
2022/05/16 07:02:12;;;;;;;8.45;3.80;;;24.20;84.40;;;;;;5060143;28;20111;-69
2022/05/16 07:04:39;;;;;;;8.73;3.80;;;24.40;83.30;;;;;;5052202;28;20032;-69
2022/05/16 07:07:08;;;;;;;11.02;4.13;;;24.50;82.80;;;;;;5059875;28;20028;-70
2022/05/16 07:09:33;;;;;;;15.88;3.92;;;24.40;85.40;;;;;;5052962;28;20479;-70
2022/05/16 07:11:59;;;;;;;9.90;4.50;;;24.00;84.90;;;;;;5057119;28;20032;-70
2022/05/16 07:14:24;;;;;;;13.02;4.43;;;24.40;85.20;;;;;;5032544;28;20142;-70
2022/05/16 07:16:51;;;;;;;9.75;4.25;;;24.40;84.10;;;;;;5046825;28;20060;-70
2022/05/16 07:19:17;;;;;;;11.65;4.00;;;24.10;84.50;;;;;;5054520;28;20154;-70
2022/05/16 07:21:42;;;;;;;13.68;4.53;;;24.20;85.40;;;;;;5061788;28;20076;-70
2022/05/16 07:24:08;;;;;;;13.55;4.72;;;24.20;85.70;;;;;;5049575;28;20025;-70
2022/05/16 07:29:20;;;;;;;10.63;4.38;;;25.30;84.80;;;;;;5056613;28;20036;-70
2022/05/16 07:31:46;;;;;;;12.32;4.20;;;26.90;79.80;;;;;;5053696;28;20033;-70
2022/05/16 07:34:12;;;;;;;12.13;4.50;;;26.90;77.00;;;;;;5042229;28;20119;-69
2022/05/16 07:36:37;;;;;;;8.52;3.83;;;26.30;79.00;;;;;;5053184;28;20090;-69
2022/05/16 07:39:03;;;;;;;14.23;4.03;;;25.90;78.30;;;;;;5051011;28;20344;-69
2022/05/16 07:41:31;;;;;;;11.15;4.38;;;24.90;84.20;;;;;;5053140;28;20033;-69
2022/05/16 07:43:57;;;;;;;12.73;4.15;;;24.50;85.20;;;;;;5051547;28;20013;-69
2022/05/16 07:46:23;;;;;;;15.05;4.80;;;24.90;84.50;;;;;;5047392;28;20032;-69
2022/05/16 07:48:48;;;;;;;8.82;4.18;;;25.10;82.10;;;;;;5043160;28;20029;-69
2022/05/16 07:51:14;;;;;;;12.00;4.50;;;24.70;85.00;;;;;;5038725;28;20112;-69
2022/05/16 07:53:40;;;;;;;10.93;4.35;;;25.40;85.20;;;;;;5051387;28;20112;-69
2022/05/16 07:56:09;;;;;;;8.75;3.75;;;26.10;80.90;;;;;;5053106;28;20033;-69
2022/05/16 07:58:35;;;;;;;10.15;4.32;;;25.80;80.10;;;;;;5046242;28;20029;-69
2022/05/16 08:01:01;;;;;;;11.38;4.05;;;25.80;82.30;;;;;;5047194;28;20602;-69
2022/05/16 08:03:28;;;;;;;14.60;4.50;;;24.80;81.00;;;;;;5052627;28;20029;-69
2022/05/16 08:05:55;;;;;;;11.88;4.57;;;24.80;81.80;;;;;;5035376;28;20492;-69
2022/05/16 08:11:09;;;;;;;13.15;4.35;;;24.50;84.60;;;;;;5052058;28;20032;-69
2022/05/16 08:13:35;;;;;;;14.50;4.53;;;24.30;85.00;;;;;;5051374;28;20427;-69
2022/05/16 08:16:01;;;;;;;13.85;4.57;;;24.10;85.40;;;;;;5045185;28;20033;-69
2022/05/16 08:18:26;;;;;;;10.95;4.28;;;24.30;86.90;;;;;;5040387;28;20490;-69
2022/05/16 08:20:53;;;;;;;15.63;4.22;;;23.80;87.70;;;;;;5048195;28;20063;-69
2022/05/16 08:23:23;;;;;;;11.00;4.65;;;23.70;88.50;;;;;;5050929;28;20029;-69
2022/05/16 08:25:49;;;;;;;10.90;4.05;;;23.50;90.00;;;;;;5054463;28;20029;-69
2022/05/16 08:28:15;;;;;;;14.98;5.07;;;23.40;90.40;;;;;;5049371;28;20029;-69
2022/05/16 08:30:41;;;;;;;14.23;4.88;;;23.20;90.60;;;;;;5042168;28;20143;-69
2022/05/16 08:33:07;;;;;;;18.15;4.72;;;23.10;92.10;;;;;;5048834;28;20049;-69
2022/05/16 08:35:33;;;;;;;12.55;4.63;;;22.80;92.20;;;;;;5052321;28;20383;-69
2022/05/16 08:41:03;;;;;;;10.80;4.25;;;22.60;92.80;;;;;;5036225;28;20364;-70
2022/05/16 08:43:50;;;;;;;13.43;4.45;;;22.50;93.20;;;;;;5052428;28;20035;-69
2022/05/16 08:46:38;;;;;;;11.38;4.40;;;22.30;92.40;;;;;;5050981;28;20031;-69
2022/05/16 08:49:13;;;;;;;12.00;4.18;;;22.10;92.40;;;;;;5049793;28;20081;-69
2022/05/16 08:51:41;;;;;;;11.75;4.63;;;22.30;93.20;;;;;;5050419;28;20088;-70
2022/05/16 08:54:37;;;;;;;12.15;4.85;;;22.30;93.30;;;;;;5044378;28;20030;-69
2022/05/16 08:57:07;;;;;;;9.77;4.10;;;22.50;93.70;;;;;;5052420;28;20033;-69
2022/05/16 08:59:36;;;;;;;10.63;4.43;;;22.60;93.50;;;;;;5051418;28;20013;-70
2022/05/16 09:02:11;;;;;;;15.43;4.78;;;22.50;94.30;;;;;;5052209;28;20522;-70
2022/05/16 09:04:56;;;;;;;16.13;4.75;;;22.50;93.50;;;;;;5051850;28;20020;-70
2022/05/16 09:07:29;;;;;;;14.45;4.72;;;23.00;93.70;;;;;;5043941;28;20394;-70
2022/05/16 09:10:09;;;;;;;10.27;4.40;;;24.40;91.90;;;;;;5052017;28;20120;-71
2022/05/16 09:12:45;;;;;;;11.20;4.57;;;24.90;90.00;;;;;;5052385;28;20501;-70
2022/05/16 09:15:51;;;;;;;17.85;4.63;;;25.20;89.30;;;;;;5049532;28;20439;-70
2022/05/16 09:18:49;;;;;;;13.18;4.70;;;24.60;88.50;;;;;;5047786;28;20037;-70
2022/05/16 09:21:54;;;;;;;12.88;4.53;;;24.20;91.10;;;;;;5043587;28;20021;-70
2022/05/16 09:24:28;;;;;;;11.93;4.28;;;24.10;90.90;;;;;;5040036;28;20491;-70
2022/05/16 09:27:09;;;;;;;11.57;4.07;;;24.10;92.00;;;;;;5051945;28;20048;-69
2022/05/16 09:29:39;;;;;;;12.63;4.07;;;24.20;90.60;;;;;;5045708;28;20088;-70
2022/05/16 09:32:24;;;;;;;21.83;5.32;;;24.40;90.90;;;;;;5044798;28;20483;-69
2022/05/16 09:34:49;;;;;;;14.15;4.82;;;24.30;90.20;;;;;;5043110;28;20025;-69
2022/05/16 09:37:15;;;;;;;13.57;5.45;;;23.70;91.00;;;;;;5043363;28;20430;-69
2022/05/16 09:39:42;;;;;;;18.60;5.28;;;23.40;91.80;;;;;;5046259;28;20040;-69
2022/05/16 09:42:14;;;;;;;13.60;4.95;;;23.50;92.80;;;;;;5046075;28;20025;-70
2022/05/16 09:44:44;;;;;;;12.18;4.63;;;23.50;92.70;;;;;;5048753;28;20079;-70
2022/05/16 09:50:14;;;;;;;14.98;4.72;;;23.50;92.50;;;;;;5063546;28;20472;-70
2022/05/16 09:52:45;;;;;;;14.43;4.72;;;23.20;93.70;;;;;;5062520;28;20024;-70
2022/05/16 09:55:30;;;;;;;8.60;4.97;;;23.30;93.60;;;;;;5061575;28;20036;-71
2022/05/16 09:58:00;;;;;;;11.50;4.82;;;23.20;93.80;;;;;;5058897;28;20036;-70
2022/05/16 10:00:55;;;;;;;11.05;5.18;;;23.30;94.30;;;;;;5056785;28;20025;-70
2022/05/16 10:06:37;;;;;;;9.70;4.70;;;23.10;94.70;;;;;;5042097;28;20964;-70
2022/05/16 10:09:07;;;;;;;11.02;4.28;;;23.00;95.30;;;;;;5035609;28;20140;-70
2022/05/16 10:11:36;;;;;;;9.57;4.90;;;23.00;96.00;;;;;;5043438;28;20033;-70
2022/05/16 10:14:02;;;;;;;10.70;4.90;;;22.90;95.70;;;;;;5042546;28;20484;-70
2022/05/16 10:16:30;;;;;;;13.52;4.97;;;23.00;96.80;;;;;;5033174;28;20146;-70
2022/05/16 10:19:03;;;;;;;13.35;4.93;;;23.00;97.20;;;;;;5041122;28;20029;-70
2022/05/16 10:21:32;;;;;;;;;;;23.00;97.30;;;;;;5042079;28;20158;-70
2022/05/16 10:23:59;;;;;;;8.35;4.15;;;22.90;97.10;;;;;;5043314;28;20003;-69
2022/05/16 10:26:30;;;;;;;12.95;4.68;;;23.00;97.50;;;;;;5042244;28;20112;-69
2022/05/16 10:28:59;;;;;;;11.68;4.88;;;23.00;97.30;;;;;;5040143;28;20435;-70
2022/05/16 10:34:38;;;;;;;17.08;5.43;;;23.20;97.50;;;;;;5046757;28;20033;-70
2022/05/16 10:37:06;;;;;;;16.23;4.45;;;23.30;98.50;;;;;;5046228;28;21223;-70
2022/05/16 10:39:32;;;;;;;11.35;4.60;;;23.30;98.40;;;;;;5045162;28;20055;-69
2022/05/16 10:42:21;;;;;;;14.48;5.10;;;23.30;97.80;;;;;;5030801;28;20026;-69
2022/05/16 10:45:09;;;;;;;14.63;5.65;;;23.10;98.00;;;;;;5040632;28;20044;-69
2022/05/16 10:47:46;;;;;;;11.82;4.90;;;23.20;97.90;;;;;;5042672;28;20121;-70
2022/05/16 10:50:18;;;;;;;8.77;4.53;;;23.60;98.00;;;;;;5058127;28;20033;-70
2022/05/16 10:52:50;;;;;;;14.25;4.72;;;23.80;97.50;;;;;;5042576;28;20044;-69
2022/05/16 10:55:16;;;;;;;13.70;4.57;;;24.00;97.40;;;;;;5047496;28;20091;-70
2022/05/16 10:58:07;;;;;;;11.95;4.63;;;24.10;96.10;;;;;;5045751;28;20041;-71
2022/05/16 11:00:56;;;;;;;9.85;4.70;;;24.40;96.30;;;;;;5036015;28;20025;-70
2022/05/16 11:03:44;;;;;;;10.15;4.80;;;24.40;96.60;;;;;;5042458;28;20037;-70
2022/05/16 11:06:35;;;;;;;12.00;4.70;;;24.60;94.70;;;;;;5028985;28;20041;-70
2022/05/16 11:09:26;;;;;;;11.25;4.60;;;25.30;95.30;;;;;;5047079;28;20491;-70
2022/05/16 11:12:16;;;;;;;10.35;4.50;;;26.00;93.50;;;;;;5044212;28;20501;-71
2022/05/16 11:15:10;;;;;;;14.00;4.55;;;25.40;92.90;;;;;;5047739;28;20380;-71
2022/05/16 11:17:55;;;;;;;10.68;4.85;;;25.30;93.40;;;;;;5026699;28;20109;-70
2022/05/16 11:20:43;;;;;;;11.65;4.13;;;25.30;93.40;;;;;;5025778;28;20030;-70
2022/05/16 11:23:35;;;;;;;10.18;4.32;;;25.70;93.20;;;;;;5034230;28;20030;-71
2022/05/16 11:26:19;;;;;;;7.88;4.10;;;26.70;92.50;;;;;;5023586;28;20087;-70
2022/05/16 11:29:19;;;;;;;28.90;5.10;;;27.40;90.90;;;;;;5025305;28;20017;-70
2022/05/16 11:32:13;;;;;;;10.50;3.60;;;26.90;90.00;;;;;;5034252;28;20029;-70
2022/05/16 11:37:34;;;;;;;14.63;4.15;;;26.80;90.60;;;;;;5108137;27;21713;-73
2022/05/16 11:40:35;;;;;;;11.23;3.50;;;26.80;91.30;;;;;;5095601;28;20394;-74
2022/05/16 11:43:24;;;;;;;9.60;3.63;;;26.60;90.10;;;;;;5096053;28;20020;-74
2022/05/16 11:46:30;;;;;;;11.63;3.25;;;26.70;91.50;;;;;;5074022;28;20024;-73
2022/05/16 11:49:09;;;;;;;8.60;3.53;;;26.50;91.90;;;;;;5089270;28;20066;-75
2022/05/16 11:52:00;;;;;;;9.85;3.72;;;26.50;93.10;;;;;;5090039;28;20032;-80
2022/05/16 11:54:30;;;;;;;9.18;3.78;;;26.30;92.40;;;;;;5068594;28;20031;-77
2022/05/16 12:02:45;;;;;;;7.65;3.70;;;25.70;93.70;;;;;;5082305;28;20100;-78
2022/05/16 12:05:30;;;;;;;8.43;4.10;;;25.80;93.00;;;;;;5105707;28;20368;-77
2022/05/16 12:08:13;;;;;;;9.27;3.92;;;25.90;92.50;;;;;;5072890;28;20025;-77
2022/05/16 12:11:00;;;;;;;12.93;4.57;;;25.70;92.70;;;;;;5084805;28;20032;-77
2022/05/16 12:13:29;;;;;;;24.55;5.75;;;25.40;93.10;;;;;;5104290;28;20031;-80
2022/05/16 12:16:17;;;;;;;7.07;3.80;;;25.30;92.80;;;;;;5093657;28;20109;-75
2022/05/16 12:18:46;;;;;;;7.60;4.03;;;25.10;93.40;;;;;;5086427;28;20076;-75
2022/05/16 12:21:22;;;;;;;11.45;3.95;;;25.20;93.50;;;;;;5102018;28;20025;-80
2022/05/16 12:29:14;;;;;;;11.98;3.78;;;25.70;93.70;;;;;;5105278;27;20342;-69
2022/05/16 12:31:50;;;;;;;9.68;3.97;;;25.30;93.00;;;;;;5105281;28;20512;-70
2022/05/16 12:37:16;;;;;;;11.13;3.78;;;25.50;94.30;;;;;;5108424;27;20427;-69
2022/05/16 12:40:04;;;;;;;8.75;3.83;;;25.50;95.40;;;;;;5101091;28;20027;-70
2022/05/16 12:42:58;;;;;;;9.13;3.53;;;25.40;93.80;;;;;;5087880;28;20040;-70
2022/05/16 12:46:03;;;;;;;10.98;4.18;;;25.20;94.40;;;;;;5086650;28;20028;-70
2022/05/16 12:48:56;;;;;;;9.88;4.47;;;25.10;95.30;;;;;;5076732;28;20043;-70
2022/05/16 12:51:40;;;;;;;8.55;3.85;;;24.90;94.00;;;;;;5088002;28;20393;-70
2022/05/16 12:54:08;;;;;;;;;;;24.70;95.50;;;;;;5089550;28;20499;-70
2022/05/16 12:56:55;;;;;;;11.77;3.90;;;24.60;94.50;;;;;;5073197;28;19939;-70
2022/05/16 12:59:48;;;;;;;11.57;3.83;;;24.70;94.30;;;;;;5071091;28;20081;-70
2022/05/16 13:02:43;;;;;;;8.10;3.72;;;24.70;93.80;;;;;;5077100;28;20471;-70
2022/05/16 13:05:32;;;;;;;12.00;4.68;;;25.00;95.00;;;;;;5093279;28;20064;-70
2022/05/16 13:08:14;;;;;;;11.32;3.92;;;25.20;94.20;;;;;;5083512;28;20074;-70
2022/05/16 13:10:56;;;;;;;12.02;4.05;;;25.30;94.30;;;;;;5078712;28;20028;-70
2022/05/16 13:13:56;;;;;;;8.80;3.97;;;25.40;94.40;;;;;;5087708;28;20037;-70
2022/05/16 13:16:27;;;;;;;10.82;4.32;;;25.20;93.60;;;;;;5077294;28;20040;-70
2022/05/16 13:19:03;;;;;;;10.50;3.75;;;25.30;94.10;;;;;;5069239;28;20021;-70
2022/05/16 13:21:45;;;;;;;7.63;3.70;;;25.30;93.70;;;;;;5074717;28;20482;-70
2022/05/16 13:24:14;;;;;;;7.30;3.70;;;25.50;93.40;;;;;;5075290;28;20536;-70
2022/05/16 13:29:34;;;;;;;9.55;3.78;;;25.70;93.40;;;;;;5078529;28;20368;-70
2022/05/16 13:32:09;;;;;;;5.88;3.63;;;25.70;92.60;;;;;;5083402;28;20091;-70
2022/05/16 13:34:43;;;;;;;9.48;3.55;;;25.90;93.00;;;;;;5068778;28;20074;-71
2022/05/16 13:37:09;;;;;;;9.50;3.95;;;25.80;93.90;;;;;;5074972;28;20063;-70
2022/05/16 13:39:40;;;;;;;8.57;3.72;;;25.70;92.30;;;;;;5085895;28;20498;-71
2022/05/16 13:42:06;;;;;;;11.73;3.72;;;25.70;92.50;;;;;;5078057;28;20470;-70
2022/05/16 13:44:39;;;;;;;10.82;3.97;;;25.90;93.30;;;;;;5081529;28;20021;-70
2022/05/16 13:47:08;;;;;;;12.07;4.10;;;25.80;93.90;;;;;;5075485;28;20482;-70
2022/05/16 13:49:34;;;;;;;6.68;3.42;;;25.80;92.50;;;;;;5072905;28;20040;-70
2022/05/16 13:52:01;;;;;;;11.65;3.90;;;25.70;91.90;;;;;;5066034;28;20406;-70